• Join FlightAware (Why Join?)
  • Login
  • US Flag 
11:14AM EDT


 

Airport Tracker/Info


-or-


 

Live Flight TrackerFlight Track Log ✈ EJA604 ✈ 30-Apr-2013 ✈ KRYY - KBHM

Flight Track Log - Related Links

Times and Time Zones

All times are in EDT time to prevent confusion due to time zone crossing. See the EJA604 flight status page for this flight to view local times or setup timezone preferences in your user account.

Time Position Orientation Groundspeed Altitude Reporting Facility
EDT Latitude Longitude Course Direction KTS MPH feet Rate Location/Type
06:55AM 34.0167 -84.6667 233° Southwest 216 249 3,000  Level Atlanta TRACON
06:56AM 34.0000 -84.7333 253° West 215 247 6,700 1,980 Climbing Atlanta TRACON
06:57AM 33.9833 -84.8167 256° West 254 292 7,000 120 Climbing Atlanta TRACON
06:58AM 33.9333 -84.9000 234° Southwest 269 310 7,000  Level Atlanta TRACON
06:59AM 33.8833 -84.9667 228° Southwest 275 316 7,000 1,740 Level Atlanta TRACON
07:00AM 33.8464 -85.0442 240° Southwest 274 315 10,600 2,220 Climbing Atlanta Center
07:01AM 33.7686 -85.0337 233° Southwest  Level FlightAware Approximate
07:01AM 33.8019 -85.1386 240° Southwest 302 348 11,700  Level Atlanta Center
07:02AM 33.7736 -85.2558 254° West 346 398 13,400 1,140 Climbing Atlanta Center
07:03AM 33.7453 -85.3703 253° West 366 421 14,000 300 Climbing Atlanta Center
07:04AM 33.7169 -85.4922 254° West 376 433 14,000  Level Atlanta Center
07:05AM 33.6861 -85.6117 253° West 376 433 14,000 -120 Level Atlanta Center
07:06AM 33.6597 -85.7183 253° West 371 427 13,800 -660 Descending Atlanta Center
07:07AM 33.6311 -85.8203 251° West 369 425 12,900 -1,080 Descending Atlanta Center
07:08AM 33.5956 -85.9617 253° West 371 427 11,700 -900 Descending Atlanta Center
07:09AM 33.5711 -86.0583 253° West 363 418 11,000 -360 Descending Atlanta Center
07:10AM 33.5442 -86.1747 255° West 357 411 11,000  Level Atlanta Center
07:11AM 33.5192 -86.2864 255° West 357 411 11,000 -300 Level Atlanta Center
07:12AM 33.4981 -86.4003 257° West 357 411 10,500 -960 Descending Atlanta Center
07:13AM 33.4892 -86.4375 254° West 328 377 9,800 -2,220 Descending Atlanta Center
07:13AM 33.4878 -86.5022 269° West 327 376 8,300 -2,100 Descending Atlanta Center
07:14AM 33.4828 -86.5444 262° West 267 307 7,500 -2,040 Descending Atlanta Center
07:14AM 33.4839 -86.5967 271° West 302 348 6,300 -1,980 Descending Atlanta Center
07:15AM 33.4789 -86.6364 261° West 271 312 5,500 -2,040 Descending Atlanta Center
07:15AM 33.4819 -86.6839 274° West 280 322 4,300 -1,860 Descending Atlanta Center
07:16AM 33.4814 -86.7111 269° West 237 273 3,800 -1,320 Descending Atlanta Center
07:16AM 33.4931 -86.7539 288° West 249 287 3,000 -1,200 Descending Atlanta Center
07:17AM 33.4967 -86.7814 279° West 184 212 2,500 -1,320 Descending Atlanta Center
07:18AM 33.5339 -86.7950 343° North 141 162 1,300 -1,320 Descending Atlanta Center
07:20AM 33.5500 -86.7500 270° West  Level FlightAware Approximate
07:27AM 33.5639 -86.7523 270° West  Level Estimated